sensor_id;sensor_type;location;lat;lon;timestamp;pressure;altitude;pressure_sealevel;temperature;humidity
84667;BME280;74896;42.518;23.712;2024-02-16T00:01:40;92623.84;;;-1.79;83.32
84667;BME280;74896;42.518;23.712;2024-02-16T00:04:06;92625.38;;;-1.86;83.54
84667;BME280;74896;42.518;23.712;2024-02-16T00:06:32;92630.91;;;-2.17;83.83
84667;BME280;74896;42.518;23.712;2024-02-16T00:08:59;92629.50;;;-2.11;84.69
84667;BME280;74896;42.518;23.712;2024-02-16T00:11:24;92624.56;;;-2.13;84.33
84667;BME280;74896;42.518;23.712;2024-02-16T00:13:50;92623.84;;;-2.05;84.06
84667;BME280;74896;42.518;23.712;2024-02-16T00:16:16;92618.97;;;-2.16;84.60
84667;BME280;74896;42.518;23.712;2024-02-16T00:18:41;92615.38;;;-2.31;84.20
84667;BME280;74896;42.518;23.712;2024-02-16T00:21:06;92624.34;;;-2.37;84.74
84667;BME280;74896;42.518;23.712;2024-02-16T00:23:32;92618.63;;;-2.56;84.82
84667;BME280;74896;42.518;23.712;2024-02-16T00:25:59;92614.97;;;-2.71;85.21
84667;BME280;74896;42.518;23.712;2024-02-16T00:28:24;92620.16;;;-2.81;85.75
84667;BME280;74896;42.518;23.712;2024-02-16T00:30:49;92616.31;;;-2.67;85.77
84667;BME280;74896;42.518;23.712;2024-02-16T00:33:15;92617.94;;;-2.76;86.18
84667;BME280;74896;42.518;23.712;2024-02-16T00:35:42;92614.38;;;-2.83;86.47
84667;BME280;74896;42.518;23.712;2024-02-16T00:38:07;92614.59;;;-2.94;86.83
84667;BME280;74896;42.518;23.712;2024-02-16T00:40:33;92607.78;;;-3.11;87.64
84667;BME280;74896;42.518;23.712;2024-02-16T00:42:58;92613.06;;;-3.05;87.77
84667;BME280;74896;42.518;23.712;2024-02-16T00:45:23;92625.31;;;-3.00;87.57
84667;BME280;74896;42.518;23.712;2024-02-16T00:47:49;92614.81;;;-3.05;87.96
84667;BME280;74896;42.518;23.712;2024-02-16T00:50:14;92619.28;;;-2.99;87.60
84667;BME280;74896;42.518;23.712;2024-02-16T00:52:40;92616.53;;;-3.06;87.38
84667;BME280;74896;42.518;23.712;2024-02-16T00:55:06;92617.56;;;-3.26;87.96
84667;BME280;74896;42.518;23.712;2024-02-16T00:57:31;92614.78;;;-3.23;88.77
84667;BME280;74896;42.518;23.712;2024-02-16T00:59:59;92618.88;;;-3.22;88.12
84667;BME280;74896;42.518;23.712;2024-02-16T01:02:24;92615.00;;;-3.16;88.06
84667;BME280;74896;42.518;23.712;2024-02-16T01:04:51;92608.66;;;-3.03;87.76
84667;BME280;74896;42.518;23.712;2024-02-16T01:07:17;92612.69;;;-3.10;87.63
84667;BME280;74896;42.518;23.712;2024-02-16T01:09:43;92607.88;;;-3.13;88.14
84667;BME280;74896;42.518;23.712;2024-02-16T01:12:08;92612.22;;;-2.96;88.52
84667;BME280;74896;42.518;23.712;2024-02-16T01:14:34;92618.78;;;-2.40;87.47
84667;BME280;74896;42.518;23.712;2024-02-16T01:16:59;92613.31;;;-2.28;86.74
84667;BME280;74896;42.518;23.712;2024-02-16T01:19:25;92610.00;;;-1.85;85.63
84667;BME280;74896;42.518;23.712;2024-02-16T01:21:50;92608.69;;;-1.63;83.62
84667;BME280;74896;42.518;23.712;2024-02-16T01:24:18;92605.13;;;-1.53;83.49
84667;BME280;74896;42.518;23.712;2024-02-16T01:26:45;92604.00;;;-1.24;82.16
84667;BME280;74896;42.518;23.712;2024-02-16T01:29:10;92605.69;;;-0.91;81.15
84667;BME280;74896;42.518;23.712;2024-02-16T01:31:36;92597.97;;;-0.65;79.70
84667;BME280;74896;42.518;23.712;2024-02-16T01:34:02;92595.41;;;-0.57;78.59
84667;BME280;74896;42.518;23.712;2024-02-16T01:36:27;92599.72;;;-0.66;78.23
84667;BME280;74896;42.518;23.712;2024-02-16T01:38:53;92597.13;;;-0.82;79.11
84667;BME280;74896;42.518;23.712;2024-02-16T01:41:18;92599.31;;;-0.95;79.20
84667;BME280;74896;42.518;23.712;2024-02-16T01:43:43;92599.47;;;-0.97;79.55
84667;BME280;74896;42.518;23.712;2024-02-16T01:46:09;92590.75;;;-0.86;78.81
84667;BME280;74896;42.518;23.712;2024-02-16T01:48:35;92592.44;;;-1.03;79.13
84667;BME280;74896;42.518;23.712;2024-02-16T01:51:00;92598.28;;;-1.10;79.74
84667;BME280;74896;42.518;23.712;2024-02-16T01:53:27;92590.53;;;-1.09;80.20
84667;BME280;74896;42.518;23.712;2024-02-16T01:55:53;92588.38;;;-0.88;79.45
84667;BME280;74896;42.518;23.712;2024-02-16T01:58:19;92581.75;;;-0.56;78.23
84667;BME280;74896;42.518;23.712;2024-02-16T02:00:45;92577.31;;;-0.30;77.21
84667;BME280;74896;42.518;23.712;2024-02-16T02:03:11;92583.84;;;-0.12;76.62
84667;BME280;74896;42.518;23.712;2024-02-16T02:05:44;92581.28;;;-0.04;75.88
84667;BME280;74896;42.518;23.712;2024-02-16T02:08:11;92576.34;;;0.03;76.22
84667;BME280;74896;42.518;23.712;2024-02-16T02:10:37;92572.69;;;0.06;75.58
84667;BME280;74896;42.518;23.712;2024-02-16T02:13:02;92580.81;;;0.17;74.57
84667;BME280;74896;42.518;23.712;2024-02-16T02:15:28;92580.97;;;0.16;74.86
84667;BME280;74896;42.518;23.712;2024-02-16T02:17:53;92582.06;;;0.21;74.64
84667;BME280;74896;42.518;23.712;2024-02-16T02:20:19;92579.19;;;0.24;74.48
84667;BME280;74896;42.518;23.712;2024-02-16T02:22:44;92573.28;;;0.24;74.95
84667;BME280;74896;42.518;23.712;2024-02-16T02:25:10;92582.06;;;0.29;74.79
84667;BME280;74896;42.518;23.712;2024-02-16T02:27:36;92574.56;;;0.36;74.48
84667;BME280;74896;42.518;23.712;2024-02-16T02:30:02;92577.41;;;0.41;73.87
84667;BME280;74896;42.518;23.712;2024-02-16T02:32:28;92570.75;;;0.24;73.92
84667;BME280;74896;42.518;23.712;2024-02-16T02:34:54;92577.00;;;-0.11;74.29
84667;BME280;74896;42.518;23.712;2024-02-16T02:37:19;92578.25;;;-0.47;76.01
84667;BME280;74896;42.518;23.712;2024-02-16T02:39:44;92581.69;;;-0.89;77.63
84667;BME280;74896;42.518;23.712;2024-02-16T02:42:10;92586.19;;;-1.16;78.88
84667;BME280;74896;42.518;23.712;2024-02-16T02:44:35;92582.84;;;-1.25;79.71
84667;BME280;74896;42.518;23.712;2024-02-16T02:47:01;92581.34;;;-0.94;79.36
84667;BME280;74896;42.518;23.712;2024-02-16T02:49:26;92574.75;;;-0.54;78.44
84667;BME280;74896;42.518;23.712;2024-02-16T02:51:52;92574.59;;;-0.29;77.22
84667;BME280;74896;42.518;23.712;2024-02-16T02:54:17;92577.31;;;-0.22;76.86
84667;BME280;74896;42.518;23.712;2024-02-16T02:56:43;92578.91;;;-0.13;76.54
84667;BME280;74896;42.518;23.712;2024-02-16T02:59:08;92581.78;;;-0.16;76.23
84667;BME280;74896;42.518;23.712;2024-02-16T03:01:36;92576.03;;;-0.02;75.58
84667;BME280;74896;42.518;23.712;2024-02-16T03:04:02;92584.47;;;0.07;75.44
84667;BME280;74896;42.518;23.712;2024-02-16T03:06:28;92581.78;;;0.16;75.00
84667;BME280;74896;42.518;23.712;2024-02-16T03:08:53;92585.09;;;0.17;75.13
84667;BME280;74896;42.518;23.712;2024-02-16T03:11:19;92578.28;;;0.09;75.10
84667;BME280;74896;42.518;23.712;2024-02-16T03:13:45;92577.44;;;0.17;75.20
84667;BME280;74896;42.518;23.712;2024-02-16T03:16:10;92589.22;;;0.26;74.87
84667;BME280;74896;42.518;23.712;2024-02-16T03:18:36;92595.44;;;0.31;74.17
84667;BME280;74896;42.518;23.712;2024-02-16T03:21:02;92594.81;;;0.29;74.34
84667;BME280;74896;42.518;23.712;2024-02-16T03:23:28;92596.06;;;0.33;74.46
84667;BME280;74896;42.518;23.712;2024-02-16T03:25:54;92596.56;;;0.29;74.22
84667;BME280;74896;42.518;23.712;2024-02-16T03:28:19;92596.41;;;0.22;74.66
84667;BME280;74896;42.518;23.712;2024-02-16T03:30:46;92592.75;;;0.17;75.02
84667;BME280;74896;42.518;23.712;2024-02-16T03:33:12;92597.88;;;0.09;74.78
84667;BME280;74896;42.518;23.712;2024-02-16T03:35:38;92597.72;;;0.02;74.97
84667;BME280;74896;42.518;23.712;2024-02-16T03:38:04;92598.66;;;-0.07;75.65
84667;BME280;74896;42.518;23.712;2024-02-16T03:40:29;92592.91;;;-0.09;75.72
84667;BME280;74896;42.518;23.712;2024-02-16T03:42:55;92600.25;;;0.02;75.36
84667;BME280;74896;42.518;23.712;2024-02-16T03:45:20;92594.81;;;-0.11;74.77
84667;BME280;74896;42.518;23.712;2024-02-16T03:47:46;92602.31;;;-0.34;76.16
84667;BME280;74896;42.518;23.712;2024-02-16T03:50:14;92602.59;;;-0.53;76.77
84667;BME280;74896;42.518;23.712;2024-02-16T03:52:40;92603.22;;;-0.67;76.72
84667;BME280;74896;42.518;23.712;2024-02-16T03:55:06;92597.31;;;-0.59;76.92
84667;BME280;74896;42.518;23.712;2024-02-16T03:57:32;92599.22;;;-0.69;77.14
84667;BME280;74896;42.518;23.712;2024-02-16T03:59:57;92595.69;;;-0.85;78.00
84667;BME280;74896;42.518;23.712;2024-02-16T04:02:23;92602.63;;;-1.03;78.68
84667;BME280;74896;42.518;23.712;2024-02-16T04:04:48;92605.78;;;-1.09;78.89
84667;BME280;74896;42.518;23.712;2024-02-16T04:07:14;92601.88;;;-0.87;78.36
84667;BME280;74896;42.518;23.712;2024-02-16T04:09:39;92616.38;;;-0.88;78.89
84667;BME280;74896;42.518;23.712;2024-02-16T04:12:05;92614.59;;;-0.95;78.48
84667;BME280;74896;42.518;23.712;2024-02-16T04:14:31;92612.78;;;-1.11;79.42
84667;BME280;74896;42.518;23.712;2024-02-16T04:16:57;92621.75;;;-1.32;80.25
84667;BME280;74896;42.518;23.712;2024-02-16T04:19:26;92617.59;;;-1.33;80.34
84667;BME280;74896;42.518;23.712;2024-02-16T04:21:51;92612.69;;;-1.61;81.66
84667;BME280;74896;42.518;23.712;2024-02-16T04:24:17;92621.41;;;-1.63;81.72
84667;BME280;74896;42.518;23.712;2024-02-16T04:26:43;92621.38;;;-1.71;81.25
84667;BME280;74896;42.518;23.712;2024-02-16T04:29:08;92615.09;;;-1.85;82.09
84667;BME280;74896;42.518;23.712;2024-02-16T04:31:34;92617.16;;;-2.06;82.85
84667;BME280;74896;42.518;23.712;2024-02-16T04:33:59;92621.72;;;-1.92;81.71
84667;BME280;74896;42.518;23.712;2024-02-16T04:36:25;92623.53;;;-2.02;81.36
84667;BME280;74896;42.518;23.712;2024-02-16T04:38:50;92622.75;;;-2.20;81.60
84667;BME280;74896;42.518;23.712;2024-02-16T04:41:16;92621.38;;;-2.32;81.92
84667;BME280;74896;42.518;23.712;2024-02-16T04:43:41;92625.66;;;-2.50;83.12
84667;BME280;74896;42.518;23.712;2024-02-16T04:46:06;92621.38;;;-2.67;84.73
84667;BME280;74896;42.518;23.712;2024-02-16T04:48:32;92616.00;;;-2.64;84.09
84667;BME280;74896;42.518;23.712;2024-02-16T04:50:59;92613.25;;;-2.71;84.65
84667;BME280;74896;42.518;23.712;2024-02-16T04:53:24;92613.25;;;-2.71;84.01
84667;BME280;74896;42.518;23.712;2024-02-16T04:55:50;92615.78;;;-2.89;85.09
84667;BME280;74896;42.518;23.712;2024-02-16T04:58:16;92617.50;;;-2.89;85.05
84667;BME280;74896;42.518;23.712;2024-02-16T05:00:41;92612.50;;;-2.99;85.94
84667;BME280;74896;42.518;23.712;2024-02-16T05:03:07;92619.13;;;-2.88;85.17
84667;BME280;74896;42.518;23.712;2024-02-16T05:05:32;92615.56;;;-2.95;84.82
84667;BME280;74896;42.518;23.712;2024-02-16T05:07:58;92617.72;;;-3.00;84.52
84667;BME280;74896;42.518;23.712;2024-02-16T05:10:23;92617.91;;;-3.11;84.84
84667;BME280;74896;42.518;23.712;2024-02-16T05:12:48;92621.28;;;-3.20;85.71
84667;BME280;74896;42.518;23.712;2024-02-16T05:15:14;92620.22;;;-3.18;86.59
84667;BME280;74896;42.518;23.712;2024-02-16T05:17:41;92622.22;;;-2.94;85.97
84667;BME280;74896;42.518;23.712;2024-02-16T05:20:12;92625.63;;;-3.13;86.18
84667;BME280;74896;42.518;23.712;2024-02-16T05:22:44;92622.84;;;-3.10;86.29
84667;BME280;74896;42.518;23.712;2024-02-16T05:25:13;92627.50;;;-2.88;86.58
84667;BME280;74896;42.518;23.712;2024-02-16T05:27:39;92624.75;;;-2.94;86.20
84667;BME280;74896;42.518;23.712;2024-02-16T05:30:05;92639.00;;;-2.83;86.23
84667;BME280;74896;42.518;23.712;2024-02-16T05:32:36;92637.28;;;-2.65;85.88
84667;BME280;74896;42.518;23.712;2024-02-16T05:35:05;92638.47;;;-2.87;85.84
84667;BME280;74896;42.518;23.712;2024-02-16T05:37:38;92646.41;;;-3.00;85.66
84667;BME280;74896;42.518;23.712;2024-02-16T05:40:07;92642.81;;;-2.97;86.12
84667;BME280;74896;42.518;23.712;2024-02-16T05:42:54;92656.53;;;-3.27;86.99
84667;BME280;74896;42.518;23.712;2024-02-16T05:45:22;92657.75;;;-3.31;88.11
84667;BME280;74896;42.518;23.712;2024-02-16T05:47:49;92654.09;;;-3.19;88.33
84667;BME280;74896;42.518;23.712;2024-02-16T05:50:14;92654.69;;;-2.98;87.98
84667;BME280;74896;42.518;23.712;2024-02-16T05:52:41;92658.56;;;-2.76;87.68
84667;BME280;74896;42.518;23.712;2024-02-16T05:55:10;92656.19;;;-2.60;87.30
84667;BME280;74896;42.518;23.712;2024-02-16T05:57:37;92647.69;;;-2.51;87.42
84667;BME280;74896;42.518;23.712;2024-02-16T06:00:04;92645.13;;;-2.24;86.73
84667;BME280;74896;42.518;23.712;2024-02-16T06:02:33;92655.97;;;-1.96;85.84
84667;BME280;74896;42.518;23.712;2024-02-16T06:05:02;92658.94;;;-1.83;84.99
84667;BME280;74896;42.518;23.712;2024-02-16T06:07:29;92652.09;;;-1.31;83.13
84667;BME280;74896;42.518;23.712;2024-02-16T06:09:57;92652.72;;;-1.03;82.60
84667;BME280;74896;42.518;23.712;2024-02-16T06:12:23;92657.69;;;-0.94;83.61
84667;BME280;74896;42.518;23.712;2024-02-16T06:14:48;92650.63;;;-0.66;83.04
84667;BME280;74896;42.518;23.712;2024-02-16T06:17:14;92649.13;;;-0.35;82.37
84667;BME280;74896;42.518;23.712;2024-02-16T06:19:43;92652.34;;;0.32;80.44
84667;BME280;74896;42.518;23.712;2024-02-16T06:22:09;92649.19;;;1.01;78.11
84667;BME280;74896;42.518;23.712;2024-02-16T06:24:35;92647.91;;;1.74;71.81
84667;BME280;74896;42.518;23.712;2024-02-16T06:27:01;92647.41;;;1.79;70.20
84667;BME280;74896;42.518;23.712;2024-02-16T06:29:26;92650.88;;;2.08;70.12
84667;BME280;74896;42.518;23.712;2024-02-16T06:31:52;92654.22;;;2.69;69.51
84667;BME280;74896;42.518;23.712;2024-02-16T06:34:18;92653.44;;;2.83;67.91
84667;BME280;74896;42.518;23.712;2024-02-16T06:36:44;92656.59;;;2.70;68.66
84667;BME280;74896;42.518;23.712;2024-02-16T06:39:11;92667.63;;;2.71;70.09
84667;BME280;74896;42.518;23.712;2024-02-16T06:41:37;92664.97;;;2.64;70.63
84667;BME280;74896;42.518;23.712;2024-02-16T06:44:04;92669.22;;;2.72;70.79
84667;BME280;74896;42.518;23.712;2024-02-16T06:46:29;92670.47;;;2.91;68.99
84667;BME280;74896;42.518;23.712;2024-02-16T06:48:55;92661.03;;;3.20;68.60
84667;BME280;74896;42.518;23.712;2024-02-16T06:51:23;92675.47;;;3.36;68.48
84667;BME280;74896;42.518;23.712;2024-02-16T06:53:48;92674.06;;;3.33;67.98
84667;BME280;74896;42.518;23.712;2024-02-16T06:56:14;92668.28;;;3.61;66.97
84667;BME280;74896;42.518;23.712;2024-02-16T06:58:39;92670.97;;;3.74;65.34
84667;BME280;74896;42.518;23.712;2024-02-16T07:01:05;92675.03;;;3.83;64.77
84667;BME280;74896;42.518;23.712;2024-02-16T07:03:30;92677.00;;;3.81;63.66
84667;BME280;74896;42.518;23.712;2024-02-16T07:05:55;92674.34;;;4.10;64.74
84667;BME280;74896;42.518;23.712;2024-02-16T07:08:21;92679.78;;;4.00;64.93
84667;BME280;74896;42.518;23.712;2024-02-16T07:10:49;92664.50;;;4.13;64.77
84667;BME280;74896;42.518;23.712;2024-02-16T07:13:16;92672.72;;;4.23;63.76
84667;BME280;74896;42.518;23.712;2024-02-16T07:15:42;92670.03;;;4.32;63.66
84667;BME280;74896;42.518;23.712;2024-02-16T07:18:08;92669.47;;;4.15;63.67
84667;BME280;74896;42.518;23.712;2024-02-16T07:20:33;92674.59;;;4.36;62.54
84667;BME280;74896;42.518;23.712;2024-02-16T07:22:58;92668.00;;;4.48;63.37
84667;BME280;74896;42.518;23.712;2024-02-16T07:25:24;92675.03;;;4.40;62.80
84667;BME280;74896;42.518;23.712;2024-02-16T07:27:50;92674.00;;;4.34;62.30
84667;BME280;74896;42.518;23.712;2024-02-16T07:30:15;92673.56;;;4.31;63.60
84667;BME280;74896;42.518;23.712;2024-02-16T07:32:40;92672.47;;;4.40;64.14
84667;BME280;74896;42.518;23.712;2024-02-16T07:35:06;92675.69;;;4.69;62.62
84667;BME280;74896;42.518;23.712;2024-02-16T07:37:31;92673.97;;;4.76;61.46
84667;BME280;74896;42.518;23.712;2024-02-16T07:39:57;92672.91;;;4.43;61.68
84667;BME280;74896;42.518;23.712;2024-02-16T07:42:23;92677.38;;;4.56;62.14
84667;BME280;74896;42.518;23.712;2024-02-16T07:44:48;92677.31;;;4.77;60.74
84667;BME280;74896;42.518;23.712;2024-02-16T07:47:14;92672.88;;;4.64;62.63
84667;BME280;74896;42.518;23.712;2024-02-16T07:49:40;92674.84;;;4.41;62.51
84667;BME280;74896;42.518;23.712;2024-02-16T07:52:06;92673.25;;;4.40;62.62
84667;BME280;74896;42.518;23.712;2024-02-16T07:54:31;92671.72;;;4.67;62.13
84667;BME280;74896;42.518;23.712;2024-02-16T07:56:56;92676.97;;;4.59;61.80
84667;BME280;74896;42.518;23.712;2024-02-16T07:59:24;92683.53;;;4.89;63.02
84667;BME280;74896;42.518;23.712;2024-02-16T08:01:50;92678.91;;;4.78;62.72
84667;BME280;74896;42.518;23.712;2024-02-16T08:04:16;92675.19;;;4.80;62.93
84667;BME280;74896;42.518;23.712;2024-02-16T08:06:41;92675.44;;;4.85;62.08
84667;BME280;74896;42.518;23.712;2024-02-16T08:09:06;92677.03;;;4.93;62.66
84667;BME280;74896;42.518;23.712;2024-02-16T08:11:32;92681.22;;;5.22;61.91
84667;BME280;74896;42.518;23.712;2024-02-16T08:13:57;92675.31;;;5.28;60.55
84667;BME280;74896;42.518;23.712;2024-02-16T08:16:26;92687.59;;;5.32;61.47
84667;BME280;74896;42.518;23.712;2024-02-16T08:18:52;92687.25;;;5.42;61.08
84667;BME280;74896;42.518;23.712;2024-02-16T08:21:18;92692.84;;;5.18;61.65
84667;BME280;74896;42.518;23.712;2024-02-16T08:23:43;92691.84;;;5.19;59.75
84667;BME280;74896;42.518;23.712;2024-02-16T08:26:09;92693.41;;;5.41;61.29
84667;BME280;74896;42.518;23.712;2024-02-16T08:28:34;92685.31;;;5.50;59.98
84667;BME280;74896;42.518;23.712;2024-02-16T08:30:59;92690.94;;;5.67;60.28
84667;BME280;74896;42.518;23.712;2024-02-16T08:33:25;92692.88;;;5.93;59.72
84667;BME280;74896;42.518;23.712;2024-02-16T08:35:50;92693.41;;;5.82;58.61
84667;BME280;74896;42.518;23.712;2024-02-16T08:38:15;92696.22;;;5.87;57.33
84667;BME280;74896;42.518;23.712;2024-02-16T08:40:41;92699.03;;;5.98;56.72
84667;BME280;74896;42.518;23.712;2024-02-16T08:43:06;92690.91;;;5.95;57.35
84667;BME280;74896;42.518;23.712;2024-02-16T08:45:35;92682.25;;;6.15;58.27
84667;BME280;74896;42.518;23.712;2024-02-16T08:48:00;92689.97;;;5.68;60.18
84667;BME280;74896;42.518;23.712;2024-02-16T08:50:28;92697.00;;;5.87;58.92
84667;BME280;74896;42.518;23.712;2024-02-16T08:52:53;92693.19;;;5.77;59.22
84667;BME280;74896;42.518;23.712;2024-02-16T08:55:19;92692.47;;;5.89;58.10
84667;BME280;74896;42.518;23.712;2024-02-16T08:57:45;92701.19;;;5.95;58.40
84667;BME280;74896;42.518;23.712;2024-02-16T09:00:11;92699.56;;;5.87;58.76
84667;BME280;74896;42.518;23.712;2024-02-16T09:02:37;92700.03;;;5.97;58.28
84667;BME280;74896;42.518;23.712;2024-02-16T09:05:03;92692.97;;;6.19;58.11
84667;BME280;74896;42.518;23.712;2024-02-16T09:07:28;92698.47;;;6.03;57.31
84667;BME280;74896;42.518;23.712;2024-02-16T09:09:54;92701.91;;;6.29;57.05
84667;BME280;74896;42.518;23.712;2024-02-16T09:12:19;92699.03;;;6.91;57.65
84667;BME280;74896;42.518;23.712;2024-02-16T09:14:45;92695.06;;;6.76;56.51
84667;BME280;74896;42.518;23.712;2024-02-16T09:17:10;92703.19;;;6.99;55.47
84667;BME280;74896;42.518;23.712;2024-02-16T09:19:36;92704.56;;;6.75;54.89
84667;BME280;74896;42.518;23.712;2024-02-16T09:22:01;92701.41;;;7.06;55.67
84667;BME280;74896;42.518;23.712;2024-02-16T09:24:28;92702.03;;;6.95;56.08
84667;BME280;74896;42.518;23.712;2024-02-16T09:26:55;92705.75;;;6.79;55.26
84667;BME280;74896;42.518;23.712;2024-02-16T09:29:21;92700.22;;;7.08;55.19
84667;BME280;74896;42.518;23.712;2024-02-16T09:31:49;92702.19;;;7.26;53.85
84667;BME280;74896;42.518;23.712;2024-02-16T09:34:14;92698.25;;;7.04;54.01
84667;BME280;74896;42.518;23.712;2024-02-16T09:36:40;92699.00;;;7.50;55.03
84667;BME280;74896;42.518;23.712;2024-02-16T09:39:05;92700.75;;;7.63;53.12
84667;BME280;74896;42.518;23.712;2024-02-16T09:41:34;92701.97;;;7.54;53.31
84667;BME280;74896;42.518;23.712;2024-02-16T09:44:02;92695.22;;;7.46;53.25
84667;BME280;74896;42.518;23.712;2024-02-16T09:46:28;92693.81;;;7.63;53.71
84667;BME280;74896;42.518;23.712;2024-02-16T09:48:55;92699.78;;;7.57;53.46
84667;BME280;74896;42.518;23.712;2024-02-16T09:51:21;92704.56;;;7.47;53.19
84667;BME280;74896;42.518;23.712;2024-02-16T09:53:50;92701.13;;;7.73;52.66
84667;BME280;74896;42.518;23.712;2024-02-16T09:56:21;92700.56;;;7.58;52.25
84667;BME280;74896;42.518;23.712;2024-02-16T09:58:47;92697.34;;;7.82;52.47
84667;BME280;74896;42.518;23.712;2024-02-16T10:01:20;92695.59;;;7.56;53.37
84667;BME280;74896;42.518;23.712;2024-02-16T10:03:49;92687.38;;;7.86;53.25
84667;BME280;74896;42.518;23.712;2024-02-16T10:06:15;92691.28;;;8.08;53.42
84667;BME280;74896;42.518;23.712;2024-02-16T10:08:54;92676.75;;;8.13;52.53
84667;BME280;74896;42.518;23.712;2024-02-16T10:11:24;92688.47;;;8.09;51.63
84667;BME280;74896;42.518;23.712;2024-02-16T10:14:01;92685.31;;;8.07;52.71
84667;BME280;74896;42.518;23.712;2024-02-16T10:16:30;92686.78;;;7.84;52.92
84667;BME280;74896;42.518;23.712;2024-02-16T10:18:57;92668.81;;;8.08;52.35
84667;BME280;74896;42.518;23.712;2024-02-16T10:21:29;92681.31;;;8.11;52.53
84667;BME280;74896;42.518;23.712;2024-02-16T10:24:06;92672.13;;;7.77;52.87
84667;BME280;74896;42.518;23.712;2024-02-16T10:26:33;92663.22;;;8.18;52.19
84667;BME280;74896;42.518;23.712;2024-02-16T10:29:04;92666.91;;;7.91;52.47
84667;BME280;74896;42.518;23.712;2024-02-16T10:31:30;92656.78;;;8.40;52.30
84667;BME280;74896;42.518;23.712;2024-02-16T10:34:05;92656.84;;;8.27;51.50
84667;BME280;74896;42.518;23.712;2024-02-16T10:36:33;92658.63;;;8.20;51.68
84667;BME280;74896;42.518;23.712;2024-02-16T10:39:00;92658.59;;;8.33;52.56
84667;BME280;74896;42.518;23.712;2024-02-16T10:41:30;92653.41;;;8.39;53.05
84667;BME280;74896;42.518;23.712;2024-02-16T10:44:01;92660.19;;;7.90;51.95
84667;BME280;74896;42.518;23.712;2024-02-16T10:46:27;92658.91;;;8.05;51.81
84667;BME280;74896;42.518;23.712;2024-02-16T10:48:52;92653.47;;;8.20;51.66
84667;BME280;74896;42.518;23.712;2024-02-16T10:51:46;92660.34;;;8.39;53.35
84667;BME280;74896;42.518;23.712;2024-02-16T10:54:17;92654.78;;;8.42;52.19
84667;BME280;74896;42.518;23.712;2024-02-16T10:56:43;92651.53;;;8.78;51.31
84667;BME280;74896;42.518;23.712;2024-02-16T10:59:09;92652.56;;;8.45;50.99
84667;BME280;74896;42.518;23.712;2024-02-16T11:01:39;92649.09;;;8.27;52.81
84667;BME280;74896;42.518;23.712;2024-02-16T11:04:07;92643.19;;;8.51;51.44
84667;BME280;74896;42.518;23.712;2024-02-16T11:06:48;92642.34;;;8.57;52.24
84667;BME280;74896;42.518;23.712;2024-02-16T11:11:54;92646.84;;;8.68;51.16
84667;BME280;74896;42.518;23.712;2024-02-16T11:14:22;92640.63;;;8.76;51.02
84667;BME280;74896;42.518;23.712;2024-02-16T11:16:48;92641.63;;;9.24;50.26
84667;BME280;74896;42.518;23.712;2024-02-16T11:19:14;92638.25;;;9.42;49.18
84667;BME280;74896;42.518;23.712;2024-02-16T11:21:58;92631.75;;;9.57;49.95
84667;BME280;74896;42.518;23.712;2024-02-16T11:24:31;92640.16;;;9.71;50.14
84667;BME280;74896;42.518;23.712;2024-02-16T11:26:57;92631.09;;;9.62;49.29
84667;BME280;74896;42.518;23.712;2024-02-16T11:29:23;92633.59;;;9.50;49.42
84667;BME280;74896;42.518;23.712;2024-02-16T11:31:50;92629.06;;;9.82;47.95
84667;BME280;74896;42.518;23.712;2024-02-16T11:34:25;92632.72;;;9.74;49.50
84667;BME280;74896;42.518;23.712;2024-02-16T11:36:55;92624.88;;;9.63;48.58
84667;BME280;74896;42.518;23.712;2024-02-16T11:39:21;92620.09;;;9.48;49.20
84667;BME280;74896;42.518;23.712;2024-02-16T11:41:47;92621.63;;;9.31;50.21
84667;BME280;74896;42.518;23.712;2024-02-16T11:44:13;92627.78;;;9.55;50.26
84667;BME280;74896;42.518;23.712;2024-02-16T11:46:41;92624.63;;;9.10;51.33
84667;BME280;74896;42.518;23.712;2024-02-16T11:49:08;92626.28;;;9.04;49.87
84667;BME280;74896;42.518;23.712;2024-02-16T11:51:34;92621.78;;;9.18;49.52
84667;BME280;74896;42.518;23.712;2024-02-16T11:53:59;92620.03;;;9.12;49.63
84667;BME280;74896;42.518;23.712;2024-02-16T11:56:25;92612.34;;;9.24;51.36
84667;BME280;74896;42.518;23.712;2024-02-16T11:58:52;92618.00;;;9.39;52.50
84667;BME280;74896;42.518;23.712;2024-02-16T12:01:17;92615.19;;;9.58;48.92
84667;BME280;74896;42.518;23.712;2024-02-16T12:03:43;92610.38;;;9.80;48.76
84667;BME280;74896;42.518;23.712;2024-02-16T12:06:08;92611.28;;;9.67;49.36
84667;BME280;74896;42.518;23.712;2024-02-16T12:08:34;92612.06;;;9.13;49.89
84667;BME280;74896;42.518;23.712;2024-02-16T12:11:00;92611.38;;;9.25;52.51
84667;BME280;74896;42.518;23.712;2024-02-16T12:13:27;92601.75;;;9.68;50.75
84667;BME280;74896;42.518;23.712;2024-02-16T12:15:52;92604.75;;;9.65;50.39
84667;BME280;74896;42.518;23.712;2024-02-16T12:18:25;92608.28;;;9.16;51.30
84667;BME280;74896;42.518;23.712;2024-02-16T12:21:00;92604.47;;;9.18;50.51
84667;BME280;74896;42.518;23.712;2024-02-16T12:23:27;92599.56;;;9.29;50.57
84667;BME280;74896;42.518;23.712;2024-02-16T12:25:52;92596.50;;;9.56;49.36
84667;BME280;74896;42.518;23.712;2024-02-16T12:28:24;92601.91;;;9.55;50.85
84667;BME280;74896;42.518;23.712;2024-02-16T12:30:50;92595.56;;;9.51;50.43
84667;BME280;74896;42.518;23.712;2024-02-16T12:33:16;92603.09;;;9.34;50.97
84667;BME280;74896;42.518;23.712;2024-02-16T12:35:42;92597.38;;;9.32;51.15
84667;BME280;74896;42.518;23.712;2024-02-16T12:38:07;92591.53;;;9.18;51.13
84667;BME280;74896;42.518;23.712;2024-02-16T12:40:32;92587.13;;;9.19;51.78
84667;BME280;74896;42.518;23.712;2024-02-16T12:42:58;92585.72;;;9.23;51.68
84667;BME280;74896;42.518;23.712;2024-02-16T12:45:23;92586.22;;;9.32;51.87
84667;BME280;74896;42.518;23.712;2024-02-16T12:47:49;92590.81;;;9.30;52.37
84667;BME280;74896;42.518;23.712;2024-02-16T12:50:16;92596.13;;;8.92;52.71
84667;BME280;74896;42.518;23.712;2024-02-16T12:52:42;92593.84;;;8.84;52.39
84667;BME280;74896;42.518;23.712;2024-02-16T12:55:08;92587.44;;;8.86;51.67